Terminal Aerodrome Forecast
Issued by NWS

Home | Current Version | Previous Version | Text Only | Print | Product List | Glossary On
Versions: 1 2 3 4 5 6 7 8 9 10 11 12 13 14 15 16 17 18 19 20 21 22 23
000
FTUS43 KMQT 171541 AAA
TAFSAW
TAF AMD
KSAW 171541Z 1716/1812 12012G18KT 1/2SM -SHRA FG OVC001
     FM171700 13008KT 1 1/2SM -SHRA BR OVC003
     FM172000 14008KT 4SM -SHRA BR VCTS OVC010CB
     FM172300 14007KT 4SM -SHRA BR OVC015
     FM180300 00000KT 3SM BR VCSH OVC008
     FM180600 32005KT 1 1/2SM BR OVC003
     FM181100 33009KT P6SM OVC008=

USA.gov is the U.S. government's official web portal to all federal, state and local government web resources and services.